This is the latest recevied weather packets stored in our database for station/object NG7N. If no packets are shown the sender has not sent any weather packets the latest 1 day(s).
| Time | Temp. | Humidity | Pressure | Rain* | Wind** | Luminosity | Snow |
|---|---|---|---|---|---|---|---|
| 1778099370 | 13.89° C | 77% | 1020.8 hPa | 0 mm | - | - | - |
| 1778093969 | 12.78° C | 83% | 1020.4 hPa | 0 mm | - | - | - |
| 1778091057 | 11.67° C | 88% | 1020.5 hPa | 0 mm | - | - | - |
| 1778089469 | 11.67° C | 91% | 1020 hPa | 0 mm | - | - | - |
| 1778087368 | 11.11° C | 93% | 1020.4 hPa | 0 mm | - | - | - |
| 1778083169 | 11.11° C | 95% | 1019.4 hPa | 0 mm | - | - | - |
| 1778082569 | 11.11° C | 95% | 1019.4 hPa | 0 mm | - | - | - |
| 1778081969 | 10.56° C | 95% | 1019.7 hPa | 0 mm | - | - | - |
| 1778081068 | 10.56° C | 95% | 1019.9 hPa | 0 mm | - | - | - |
| 1778080168 | 10.56° C | 95% | 1019.6 hPa | 0 mm | - | - | - |
| 1778079568 | 10.56° C | 95% | 1019.4 hPa | 0 mm | - | - | - |
| 1778078968 | 10.56° C | 95% | 1019.4 hPa | 0 mm | - | - | - |
| 1778078069 | 10.56° C | 95% | 1019.5 hPa | 0 mm | - | - | - |
| 1778077768 | 10.56° C | 95% | 1019.5 hPa | 0 mm | - | - | - |
| 1778072668 | 10.56° C | 92% | 1019.2 hPa | 0 mm | - | - | - |
| 1778070268 | 11.11° C | 92% | 1018.7 hPa | 0 mm | - | - | - |
| 1778069668 | 11.11° C | 92% | 1018.6 hPa | 0 mm | - | - | - |
| 1778066368 | 11.11° C | 91% | 1018.3 hPa | 0 mm | - | - | - |
| 1778066068 | 10.56° C | 91% | 1018.3 hPa | 0 mm | - | - | - |
| 1778064568 | 10.56° C | 92% | 1018.1 hPa | 0 mm | - | - | - |
| 1778063968 | 10.56° C | 92% | 1018.1 hPa | 0 mm | - | - | - |
| 1778062168 | 10.56° C | 91% | 1018 hPa | 0 mm | - | - | - |
| 1778060968 | 11.11° C | 91% | 1017.8 hPa | 0 mm | - | - | - |
| 1778059768 | 11.11° C | 91% | 1017.7 hPa | 0 mm | - | - | - |
| 1778058568 | 11.11° C | 90% | 1017.6 hPa | 0 mm | - | - | - |
* Rain latest hour (hover to see other rain measurements)
** Current wind speed in m/s (hover to see current wind gust speed)